Sunday, October 21, 2018, 6:14 AM EDT
Back to Local

KSWF, Newburgh / Stewart

Location: New Windsor, NY, United States Lat: 41.5
Local Time: 6:14 AM EDT (10:14 GMT) Lon: -74.1
Time Zone: US/Eastern Elev: 492 ft

Show me the last for .
Show Coded

Time T Td Feel RH Dir Speed Gust Alt SLP Vis Weather Sky Remarks
2018-10-21 05:45 45 43 41 93 290° 7 - 29.72 - 10 OVC060 None
2018-10-21 04:45 45 45 41 100 300° 6 - 29.68 - 10 OVC050 None
2018-10-21 03:45 45 45 40 100 290° 9 - 29.65 - 10 SCT070 None
2018-10-21 02:45 45 45 42 100 Variable 5 - 29.63 - 10 BKN040 None
2018-10-21 01:45 46 45 44 93 360° 5 - 29.65 - 7 -RA OVC030 None
2018-10-21 00:45 46 46 44 100 310° 5 - 29.64 - 7 -RA OVC030 None
2018-10-20 23:45 46 46 44 100 280° 5 - 29.64 - 7 -RA OVC040 None
2018-10-20 22:45 48 45 46 87 270° 6 - 29.63 - 10 BKN050 OVC070 None
2018-10-20 21:45 50 45 - 81 - Calm - 29.63 - 10 BKN060 None
2018-10-20 20:45 50 43 47 76 230° 7 - 29.62 - 10 BKN070 None
2018-10-20 19:45 50 45 47 81 290° 7 - 29.63 - 10 BKN070 None
2018-10-20 18:45 52 45 - 76 - Calm - 29.62 - 10 BKN070 None
2018-10-20 17:45 55 43 - 62 - Calm - 29.60 - 20 SCT045 None
2018-10-20 16:45 55 45 - 66 310° 14 - 29.62 - 20 BKN045 None
2018-10-20 15:45 59 46 - 62 290° 14 21 29.62 - 20 BKN060 None
2018-10-20 14:45 59 46 - 62 270° 14 23 29.62 - 20 SCT030 BKN050 None
2018-10-20 13:45 61 48 - 63 280° 14 - 29.65 - 20 BKN030 BKN050 None
2018-10-20 12:45 59 48 - 67 280° 14 - 29.68 - 20 BKN020 BKN050 None
2018-10-20 11:45 57 50 - 76 280° 12 23 29.70 - 15 BKN020 BKN050 None
2018-10-20 10:45 57 52 - 82 280° 12 23 29.70 - 15 BKN020 BKN050 None
2018-10-20 10:20 57 52 - 82 270° 9 18 29.71 - 15 SCT015 SCT050 None
2018-10-20 09:45 55 52 - 87 280° 12 21 29.72 - 10 BKN015 BKN035 None
2018-10-20 07:45 52 50 - 93 220° 12 - 29.72 - 7 -DZ OVC030 None
2018-10-20 06:45 52 50 - 93 230° 7 - 29.72 - 10 -DZ SCT035 OVC045 None

Support USWX by starting your Amazon purchase here.